Borghorst Airfield

DE-0174 · North Rhine-Westphalia, Niemcy

6 października 2022

Czas Kod Pogoda Temp. Widoczność Sufit Wiatr METAR/SPECI
04:20
V
13 °C 10 km+ - 230° 230° 10 kt METAR EDDG 060220Z AUTO 23010KT 9999 FEW015 13/11 Q1021 NOSIG
03:50
V
13 °C 10 km+ - 230° 230° 10 kt METAR EDDG 060150Z AUTO 23010KT 200V260 CAVOK 13/11 Q1021 NOSIG
03:20
V
14 °C 10 km+ - 240° 240° 12 kt METAR EDDG 060120Z AUTO 24012KT 9999 FEW019 14/11 Q1021
02:50
V
14 °C 10 km+ - 240° 240° 13 kt METAR EDDG 060050Z AUTO 24013KT 220V280 9999 FEW031 14/12 Q1020 NOSIG
02:20
V
13 °C 10 km+ - 230° 230° 8 kt METAR EDDG 060020Z AUTO 23008KT 9999 FEW033 13/11 Q1020 NOSIG
01:50
V
13 °C 10 km+ - 240° 240° 10 kt METAR EDDG 052350Z AUTO 24010KT 9999 -RA FEW029 13/11 Q1019 NOSIG
01:20
V
13 °C 10 km+ 4.300 ft 260° 260° 11 kt METAR EDDG 052320Z AUTO 26011KT 9999 SCT032 OVC043 13/12 Q1019 NOSIG
00:50
V
13 °C 10 km+ 3.400 ft 270° 270° 14 kt METAR EDDG 052250Z AUTO 27014KT 9999 -RA FEW021 OVC034 13/11 Q1019 RESHRA TEMPO 28015G25KT
00:20
V
18 °C 10 km+ 4.600 ft 230° 230° 15 - 26 kt METAR EDDG 052220Z AUTO 23015G26KT 200V280 9999 SHRA FEW025 BKN046 FEW///CB 18/13 Q1017 BECMG NSW

5 października 2022

Czas Kod Pogoda Temp. Widoczność Sufit Wiatr METAR/SPECI
23:50
V
18 °C 10 km+ 4.400 ft 220° 220° 19 - 30 kt METAR EDDG 052150Z AUTO 22019G30KT 190V250 9999 SCT032 BKN044 18/13 Q1016 BECMG 24014KT
23:20
V
19 °C 10 km+ 3.300 ft 220° 220° 17 kt METAR EDDG 052120Z AUTO 22017KT 180V250 9999 BKN033 BKN049 19/12 Q1016 NOSIG
22:50
V
18 °C 10 km+ 3.700 ft 210° 210° 14 kt METAR EDDG 052050Z AUTO 21014KT 180V240 9999 BKN037 18/12 Q1016 NOSIG
22:20
V
18 °C 10 km+ 3.800 ft 220° 220° 13 kt METAR EDDG 052020Z AUTO 22013KT 9999 BKN038 18/12 Q1015 NOSIG
21:50
V
18 °C 10 km+ - 220° 220° 14 kt METAR EDDG 051950Z AUTO 22014KT 9999 SCT034 18/11 Q1015 NOSIG
21:20
V
18 °C 10 km+ 3.200 ft 220° 220° 12 kt METAR EDDG 051920Z AUTO 22012KT 180V260 9999 BKN032 18/11 Q1015 NOSIG
20:50
V
18 °C 10 km+ 4.500 ft 220° 220° 13 kt METAR EDDG 051850Z AUTO 22013KT 190V250 9999 SCT032 BKN045 18/11 Q1015 NOSIG
20:20
V
18 °C 10 km+ 3.400 ft 230° 230° 19 - 32 kt METAR EDDG 051820Z AUTO 23019G32KT 200V260 9999 BKN034 BKN040 OVC049 18/11 Q1015 NOSIG
19:50
V
19 °C 10 km+ - 230° 230° 16 kt METAR EDDG 051750Z AUTO 23016KT 210V270 9999 FEW037 SCT049 19/12 Q1014 NOSIG
19:20
V
19 °C 10 km+ - 210° 210° 10 kt METAR EDDG 051720Z AUTO 21010KT 180V240 9999 FEW039 SCT048 19/12 Q1014 NOSIG
18:50
V
19 °C 10 km+ - 200° 200° 7 kt METAR EDDG 051650Z AUTO 20007KT 170V230 9999 SCT046 19/12 Q1013 BECMG 20012KT
18:20
V
20 °C 10 km+ - 210° 210° 6 kt METAR EDDG 051620Z AUTO 21006KT 170V240 9999 SCT045 20/12 Q1013 NOSIG
17:50
V
20 °C 10 km+ - 200° 200° 8 kt METAR EDDG 051550Z AUTO 20008KT 160V230 CAVOK 20/12 Q1013 NOSIG
17:20
V
20 °C 10 km+ - 200° 200° 8 kt METAR EDDG 051520Z AUTO 20008KT 150V240 CAVOK 20/12 Q1013 NOSIG
16:50
V
20 °C 10 km+ - 200° 200° 9 kt METAR EDDG 051450Z AUTO 20009KT 150V230 CAVOK 20/12 Q1013 NOSIG
16:20
V
20 °C 10 km+ - 210° 210° 11 kt METAR EDDG 051420Z AUTO 21011KT 170V240 9999 FEW034 20/12 Q1013 NOSIG
15:50
V
19 °C 10 km+ - 190° 190° 13 kt METAR EDDG 051350Z AUTO 19013KT 160V220 9999 FEW033 19/12 Q1013 NOSIG
15:20
V
19 °C 10 km+ - 200° 200° 15 kt METAR EDDG 051320Z AUTO 20015KT 170V240 9999 SCT031 19/12 Q1014 NOSIG
14:50
V
19 °C 10 km+ 3.000 ft 210° 210° 12 - 23 kt METAR EDDG 051250Z AUTO 21012G23KT 170V240 9999 BKN030 19/12 Q1014 NOSIG
14:20
V
18 °C 10 km+ 3.100 ft 200° 200° 13 kt METAR EDDG 051220Z AUTO 20013KT 160V230 9999 BKN031 18/12 Q1014 NOSIG
13:50
V
18 °C 10 km+ 3.200 ft 190° 190° 12 kt METAR EDDG 051150Z AUTO 19012KT 160V220 9999 BKN032 18/12 Q1014 NOSIG
13:20
V
17 °C 10 km+ 3.400 ft 190° 190° 14 - 24 kt METAR EDDG 051120Z AUTO 19014G24KT 160V230 9999 OVC034 17/11 Q1015 NOSIG
12:50
V
17 °C 10 km+ 3.400 ft 200° 200° 11 kt METAR EDDG 051050Z AUTO 20011KT 160V230 9999 OVC034 17/12 Q1015 BECMG 21015G25KT
12:20
V
17 °C 10 km+ 3.200 ft 200° 200° 10 - 22 kt METAR EDDG 051020Z AUTO 20010G22KT 160V240 9999 OVC032 17/11 Q1015 NOSIG
11:50
V
16 °C 10 km+ 3.100 ft 210° 210° 11 kt METAR EDDG 050950Z AUTO 21011KT 160V230 9999 OVC031 16/11 Q1016 BECMG 21015G25KT
11:20
V
16 °C 10 km+ 3.100 ft 210° 210° 10 kt METAR EDDG 050920Z AUTO 21010KT 170V230 9999 OVC031 16/11 Q1016 BECMG 21015KT
10:50
V
15 °C 10 km+ 3.000 ft 210° 210° 9 kt METAR EDDG 050850Z AUTO 21009KT 180V250 9999 SCT022 OVC030 15/11 Q1016 BECMG 21014KT
10:20
M
14 °C 10 km+ 2.400 ft 200° 200° 7 kt METAR EDDG 050820Z AUTO 20007KT 160V230 9999 OVC024 14/11 Q1016 BECMG 21014KT
09:50
M
14 °C 10 km+ 2.700 ft 200° 200° 8 kt METAR EDDG 050750Z AUTO 20008KT 160V240 9999 OVC027 14/11 Q1016 NOSIG
09:20
M
14 °C 10 km+ 2.900 ft 190° 190° 9 kt METAR EDDG 050720Z AUTO 19009KT 150V220 9999 OVC029 14/11 Q1016 NOSIG
08:50
V
14 °C 10 km+ 3.000 ft 180° 180° 8 kt METAR EDDG 050650Z AUTO 18008KT 140V210 9999 OVC030 14/11 Q1016 BECMG 21013KT
08:20
V
13 °C 10 km+ 3.000 ft 190° 190° 8 kt METAR EDDG 050620Z AUTO 19008KT 150V220 9999 OVC030 13/11 Q1016 NOSIG
07:50
V
13 °C 10 km+ 3.100 ft 190° 190° 7 kt METAR EDDG 050550Z AUTO 19007KT 160V220 9999 OVC031 13/11 Q1016 NOSIG
07:20
V
12 °C 10 km+ 3.100 ft 180° 180° 5 kt METAR EDDG 050520Z AUTO 18005KT 150V210 9999 OVC031 12/10 Q1016 BECMG 19010KT
06:50
V
12 °C 10 km+ 3.200 ft 180° 180° 3 kt METAR EDDG 050450Z AUTO 18003KT 140V220 9999 OVC032 12/10 Q1016 BECMG 19010KT
06:20
V
12 °C 10 km+ - 180° 180° 4 kt METAR EDDG 050420Z AUTO 18004KT 150V210 9999 SCT033 12/10 Q1016 NOSIG
05:50
V
12 °C 10 km+ 3.300 ft 170° 170° 5 kt METAR EDDG 050350Z AUTO 17005KT 9999 BKN033 12/10 Q1016 NOSIG
05:20
V
12 °C 10 km+ 3.400 ft 160° 160° 5 kt METAR EDDG 050320Z AUTO 16005KT 130V200 9999 BKN034 12/10 Q1016 NOSIG
04:50
V
12 °C 10 km+ 3.400 ft 160° 160° 5 kt METAR EDDG 050250Z AUTO 16005KT 140V210 9999 OVC034 12/10 Q1017 NOSIG
04:20
V
12 °C 10 km+ 3.300 ft 180° 180° 5 kt METAR EDDG 050220Z AUTO 18005KT 150V210 9999 BKN033 12/10 Q1017 NOSIG
03:50
V
12 °C 10 km+ - 170° 170° 5 kt METAR EDDG 050150Z AUTO 17005KT 9999 SCT035 12/10 Q1017 NOSIG
03:20
V
12 °C 10 km+ - 170° 170° 5 kt METAR EDDG 050120Z AUTO 17005KT 140V200 9999 FEW038 12/10 Q1017 NOSIG
02:50
V
12 °C 10 km+ 3.800 ft 170° 170° 5 kt METAR EDDG 050050Z AUTO 17005KT 9999 BKN038 12/10 Q1018 NOSIG
02:20
V
11 °C 10 km+ - 170° 170° 5 kt METAR EDDG 050020Z AUTO 17005KT 9999 FEW038 11/10 Q1018 NOSIG
01:50
V
11 °C 10 km+ - 170° 170° 6 kt METAR EDDG 042350Z AUTO 17006KT CAVOK 11/09 Q1018 NOSIG
01:20
V
12 °C 10 km+ - 190° 190° 4 kt METAR EDDG 042320Z AUTO 19004KT CAVOK 12/09 Q1018 NOSIG
00:50
V
11 °C 10 km+ - 170° 170° 4 kt METAR EDDG 042250Z AUTO 17004KT CAVOK 11/09 Q1018 NOSIG
00:20
V
11 °C 10 km+ - 160° 160° 4 kt METAR EDDG 042220Z AUTO 16004KT CAVOK 11/09 Q1018 NOSIG

4 października 2022

Czas Kod Pogoda Temp. Widoczność Sufit Wiatr METAR/SPECI
23:50
V
11 °C 10 km+ - 160° 160° 4 kt METAR EDDG 042150Z AUTO 16004KT CAVOK 11/09 Q1018 NOSIG
23:20
V
12 °C 10 km+ - 160° 160° 5 kt METAR EDDG 042120Z AUTO 16005KT CAVOK 12/09 Q1018 NOSIG
22:50
V
12 °C 10 km+ - 160° 160° 5 kt METAR EDDG 042050Z AUTO 16005KT CAVOK 12/09 Q1018 NOSIG
22:20
V
11 °C 10 km+ - 170° 170° 4 kt METAR EDDG 042020Z AUTO 17004KT CAVOK 11/09 Q1019 NOSIG
21:50
V
10 °C 10 km+ - 150° 150° 3 kt METAR EDDG 041950Z AUTO 15003KT 020V180 CAVOK 10/08 Q1019 NOSIG
21:20
V
11 °C 10 km+ - 160° 160° 3 kt METAR EDDG 041920Z AUTO 16003KT CAVOK 11/09 Q1019 NOSIG
20:50
V
12 °C 10 km+ - 180° 180° 3 kt METAR EDDG 041850Z AUTO 18003KT CAVOK 12/09 Q1019 NOSIG
20:20
V
13 °C 10 km+ - 190° 190° 3 kt METAR EDDG 041820Z AUTO 19003KT CAVOK 13/09 Q1019 NOSIG
19:50
V
14 °C 10 km+ - 170° 170° 3 kt METAR EDDG 041750Z AUTO 17003KT CAVOK 14/09 Q1018 NOSIG
19:20
V
15 °C 10 km+ - 180° 180° 3 kt METAR EDDG 041720Z AUTO 18003KT CAVOK 15/09 Q1018 NOSIG
18:50
V
16 °C 10 km+ - 200° 200° 4 kt METAR EDDG 041650Z AUTO 20004KT CAVOK 16/09 Q1018 NOSIG
18:20
V
17 °C 10 km+ - 200° 200° 4 kt METAR EDDG 041620Z AUTO 20004KT 150V240 CAVOK 17/09 Q1018 NOSIG
17:50
V
18 °C 10 km+ - 210° 210° 5 kt METAR EDDG 041550Z AUTO 21005KT 140V240 CAVOK 18/09 Q1018 NOSIG
17:20
V
18 °C 10 km+ - 180° 180° 6 kt METAR EDDG 041520Z AUTO 18006KT 140V200 CAVOK 18/10 Q1019 NOSIG
16:50
V
18 °C 10 km+ - 200° 200° 7 kt METAR EDDG 041450Z AUTO 20007KT 150V220 CAVOK 18/09 Q1018 NOSIG
16:20
V
18 °C 10 km+ - 210° 210° 9 kt METAR EDDG 041420Z AUTO 21009KT 180V240 CAVOK 18/09 Q1019 NOSIG
15:50
V
18 °C 10 km+ - 190° 190° 8 kt METAR EDDG 041350Z AUTO 19008KT 160V240 CAVOK 18/10 Q1019 NOSIG
15:20
V
18 °C 10 km+ - 200° 200° 8 kt METAR EDDG 041320Z AUTO 20008KT 160V240 CAVOK 18/10 Q1019 NOSIG
14:50
V
17 °C 10 km+ - 200° 200° 9 kt METAR EDDG 041250Z AUTO 20009KT CAVOK 17/09 Q1020 NOSIG
14:20
V
18 °C 10 km+ - 210° 210° 9 kt METAR EDDG 041220Z AUTO 21009KT 160V250 CAVOK 18/09 Q1020 NOSIG
13:50
V
17 °C 10 km+ - 180° 180° 10 kt METAR EDDG 041150Z AUTO 18010KT 150V210 CAVOK 17/10 Q1020 NOSIG
13:20
V
17 °C 10 km+ - 190° 190° 7 kt METAR EDDG 041120Z AUTO 19007KT 160V240 CAVOK 17/10 Q1021 NOSIG
12:50
V
16 °C 10 km+ - 200° 200° 8 kt METAR EDDG 041050Z AUTO 20008KT 160V230 CAVOK 16/09 Q1021 NOSIG
12:20
V
16 °C 10 km+ - 190° 190° 7 kt METAR EDDG 041020Z AUTO 19007KT 150V220 CAVOK 16/10 Q1021 NOSIG
11:50
V
15 °C 10 km+ - 180° 180° 7 kt METAR EDDG 040950Z AUTO 18007KT 140V220 CAVOK 15/09 Q1021 NOSIG
11:20
V
14 °C 10 km+ - 170° 170° 7 kt METAR EDDG 040920Z AUTO 17007KT 140V220 CAVOK 14/10 Q1021 NOSIG
10:50
V
13 °C 10 km+ - 190° 190° 6 kt METAR EDDG 040850Z AUTO 19006KT 160V220 CAVOK 13/09 Q1021 NOSIG
10:20
V
12 °C 10 km+ - 170° 170° 4 kt METAR EDDG 040820Z AUTO 17004KT 130V200 CAVOK 12/09 Q1022 NOSIG
09:50
V
11 °C 10 km+ - 160° 160° 4 kt METAR EDDG 040750Z AUTO 16004KT 120V190 CAVOK 11/09 Q1022 NOSIG
09:20
V
9 °C 10 km+ - 150° 150° 5 kt METAR EDDG 040720Z AUTO 15005KT 110V180 CAVOK 09/08 Q1022 NOSIG
08:50
V
9 °C 10 km+ - 140° 140° 5 kt METAR EDDG 040650Z AUTO 14005KT 080V160 CAVOK 09/08 Q1021 NOSIG
08:20
V
8 °C 10 km+ - 130° 130° 3 kt METAR EDDG 040620Z AUTO 13003KT 090V160 CAVOK 08/08 Q1022 NOSIG
07:50
V
8 °C 10 km+ - 120° 120° 3 kt METAR EDDG 040550Z AUTO 12003KT 070V160 CAVOK 08/08 Q1021 NOSIG
07:20
V
8 °C 10 km+ - Var Var 2 kt METAR EDDG 040520Z AUTO VRB02KT CAVOK 08/08 Q1022 NOSIG
06:50
V
9 °C 10 km+ - Var Var 1 kt METAR EDDG 040450Z AUTO VRB01KT CAVOK 09/08 Q1022 NOSIG
06:20
V
9 °C 10 km+ - 140° 140° 4 kt METAR EDDG 040420Z AUTO 14004KT 100V170 CAVOK 09/08 Q1022 NOSIG
05:50
V
9 °C 10 km+ - 150° 150° 4 kt METAR EDDG 040350Z AUTO 15004KT CAVOK 09/09 Q1022 NOSIG
05:20
V
9 °C 10 km+ - Var Var 2 kt METAR EDDG 040320Z AUTO VRB02KT CAVOK 09/09 Q1022 NOSIG
04:50
V
9 °C 10 km+ - Var Var 2 kt METAR EDDG 040250Z AUTO VRB02KT CAVOK 09/09 Q1022 NOSIG
04:20
V
9 °C 10 km+ - Var Var 2 kt METAR EDDG 040220Z AUTO VRB02KT CAVOK 09/09 Q1022 NOSIG
03:50
V
9 °C 10 km+ - Var Var 1 kt METAR EDDG 040150Z AUTO VRB01KT CAVOK 09/09 Q1023 NOSIG
03:20
V
9 °C 10 km+ - Var Var 2 kt METAR EDDG 040120Z AUTO VRB02KT CAVOK 09/09 Q1023 NOSIG
02:50
V
9 °C 10 km+ - Var Var 2 kt METAR EDDG 040050Z AUTO VRB02KT CAVOK 09/09 Q1023 NOSIG
02:20
V
9 °C 10 km+ - 150° 150° 1 kt METAR EDDG 040020Z AUTO 15001KT CAVOK 09/09 Q1023 NOSIG
01:50
V
9 °C 10 km+ - Var Var 1 kt METAR EDDG 032350Z AUTO VRB01KT CAVOK 09/09 Q1024 NOSIG
01:20
V
9 °C 10 km+ - Var Var 1 kt METAR EDDG 032320Z AUTO VRB01KT CAVOK 09/08 Q1024 NOSIG
00:50
V
9 °C 10 km+ - Var Var 2 kt METAR EDDG 032250Z AUTO VRB02KT 9999 FEW029 09/09 Q1024 NOSIG
00:20
V
9 °C 10 km+ - Var Var 1 kt METAR EDDG 032220Z AUTO VRB01KT CAVOK 09/09 Q1024 NOSIG

3 października 2022

Czas Kod Pogoda Temp. Widoczność Sufit Wiatr METAR/SPECI
23:50
V
9 °C 10 km+ - Var Var 1 kt METAR EDDG 032150Z AUTO VRB01KT CAVOK 09/09 Q1024 NOSIG
23:20
V
9 °C 9 km - Var Var 1 kt METAR EDDG 032120Z AUTO VRB01KT 9000 FEW036 09/09 Q1024 TEMPO 2000 BCFG
22:50
V
9 °C 10 km+ - 150° 150° 2 kt METAR EDDG 032050Z AUTO 15002KT CAVOK 09/09 Q1024 NOSIG
22:20
V
9 °C 10 km+ - Var Var 1 kt METAR EDDG 032020Z AUTO VRB01KT CAVOK 09/09 Q1025 NOSIG
21:50
V
9 °C 10 km+ - 130° 130° 1 kt METAR EDDG 031950Z AUTO 13001KT CAVOK 09/09 Q1025 NOSIG
21:20
V
9 °C 10 km+ - Var Var 1 kt METAR EDDG 031920Z AUTO VRB01KT CAVOK 09/09 Q1025 NOSIG
Starsze dane

My i osoby trzecie śledzimy twoje zachowanie w internecie na naszej stronie za pomocą plików cookie. Jeśli kontynuujesz, zakładamy, że zgadzasz się z naszą polityką plików cookie. Dowiedz się więcej